East Burke, Vermont
Current Conditions -  °F | °C
As of 5:35 PM on Friday 24 Oct 2014 (Local Time) from KCDA Reporting Station
Haze Haze  
Wind Chill: 37°   Ceiling: 700
Heat Index: 43°   Visibility: 3mi
Dew Point: 39°   Wind: 12mph
Humidity: 87%   Direction: 280°W
Pressure: 29.78"   Gusts: NA
Location:  44.59°N, 71.94°W
Report Text: KCDA 242135Z AUTO 28010KT 3SM BR OVC007 06/04 A2978 RMK AO2 T00610041
Loading
Personal Weather Stations






























Interactive Weather Map
Tropical Storm Tracking
New forecast layout! Learn more

10-Day Weather Forecast

Advertisements
Track Severe Weather on mobile